createdAt,value
2018-11-29T00:01:52.663Z,80.30
2018-11-29T00:04:22.044Z,80.40
2018-11-29T00:07:06.788Z,80.40
2018-11-29T00:09:45.569Z,80.40
2018-11-29T00:12:15.369Z,80.60
2018-11-29T00:14:45.203Z,80.70
2018-11-29T00:17:17.060Z,80.70
2018-11-29T00:19:47.167Z,80.80
2018-11-29T00:22:16.535Z,81.00
2018-11-29T00:24:54.626Z,81.20
2018-11-29T00:27:28.584Z,81.20
2018-11-29T00:29:58.086Z,80.80
2018-11-29T00:32:32.195Z,80.90
2018-11-29T00:35:01.827Z,80.90
2018-11-29T00:37:31.876Z,81.00
2018-11-29T00:40:02.693Z,81.00
2018-11-29T00:42:32.778Z,81.00
2018-11-29T00:45:03.131Z,80.90
2018-11-29T00:47:33.719Z,80.90
2018-11-29T00:50:05.076Z,81.00
2018-11-29T00:55:49.167Z,81.20
2018-11-29T00:58:27.645Z,81.00
2018-11-29T01:01:00.757Z,80.80
2018-11-29T01:03:37.754Z,80.80
2018-11-29T01:06:08.167Z,80.70
2018-11-29T01:08:44.992Z,80.70
2018-11-29T01:11:14.589Z,80.70
2018-11-29T01:13:44.619Z,80.70
2018-11-29T01:16:28.324Z,80.70
2018-11-29T01:18:57.705Z,80.30
2018-11-29T01:21:27.252Z,80.30
2018-11-29T01:24:03.314Z,80.50
2018-11-29T01:26:33.271Z,80.60
2018-11-29T01:35:28.278Z,80.90
2018-11-29T01:37:58.909Z,80.60
2018-11-29T01:40:29.731Z,80.60
2018-11-29T01:42:59.275Z,80.60
2018-11-29T01:45:28.699Z,80.60
2018-11-29T01:51:22.140Z,80.30
2018-11-29T01:53:52.855Z,80.30
2018-11-29T01:56:22.553Z,80.40
2018-11-29T01:59:00.623Z,80.70
2018-11-29T02:01:30.375Z,81.00
2018-11-29T02:04:00.119Z,81.30
2018-11-29T02:06:36.655Z,81.80
2018-11-29T02:09:17.701Z,82.30
2018-11-29T02:11:50.350Z,82.40
2018-11-29T02:14:20.644Z,82.70
2018-11-29T02:16:57.320Z,83.00
2018-11-29T02:19:27.867Z,83.20
2018-11-29T02:21:58.455Z,83.20
2018-11-29T02:24:27.899Z,83.70
2018-11-29T02:26:57.819Z,83.90
2018-11-29T02:29:27.626Z,83.80
2018-11-29T02:32:00.934Z,83.90
2018-11-29T02:34:30.499Z,83.90
2018-11-29T02:37:00.018Z,84.10
2018-11-29T02:39:30.334Z,84.20
2018-11-29T02:41:59.762Z,84.60
2018-11-29T02:44:29.133Z,84.60
2018-11-29T02:46:59.132Z,84.50
2018-11-29T02:49:29.851Z,84.50
2018-11-29T02:51:59.379Z,84.80
2018-11-29T02:54:34.043Z,85.00
2018-11-29T02:57:04.128Z,85.00
2018-11-29T02:59:34.319Z,85.00
2018-11-29T03:02:04.507Z,85.20
2018-11-29T03:04:34.838Z,85.10
2018-11-29T03:07:04.715Z,85.10
2018-11-29T03:09:34.111Z,85.00
2018-11-29T03:15:11.023Z,84.70
2018-11-29T03:17:41.027Z,84.60
2018-11-29T03:20:12.434Z,84.50
2018-11-29T03:22:41.937Z,84.20
2018-11-29T03:25:28.668Z,84.10
2018-11-29T03:27:58.067Z,84.10
2018-11-29T03:30:27.492Z,83.80
2018-11-29T03:32:56.893Z,83.70
2018-11-29T03:35:26.261Z,84.70
2018-11-29T03:37:56.236Z,83.70
2018-11-29T03:40:25.656Z,83.60
2018-11-29T03:45:36.016Z,83.50
2018-11-29T03:48:05.435Z,83.60
2018-11-29T03:50:41.248Z,83.30
2018-11-29T03:53:10.633Z,82.90
2018-11-29T03:55:40.196Z,82.20
2018-11-29T03:58:17.137Z,81.80
2018-11-29T04:00:46.477Z,81.70
2018-11-29T04:03:15.896Z,81.60
2018-11-29T04:05:45.319Z,81.50
2018-11-29T04:08:14.684Z,81.60
2018-11-29T04:10:51.837Z,81.50
2018-11-29T04:13:21.005Z,82.10
2018-11-29T04:15:50.930Z,82.40
2018-11-29T04:18:25.503Z,82.60
2018-11-29T04:20:55.411Z,82.60
2018-11-29T04:23:25.324Z,83.10
2018-11-29T04:26:01.039Z,83.10
2018-11-29T04:28:30.388Z,83.20
2018-11-29T04:30:59.770Z,83.10
2018-11-29T04:33:29.202Z,82.80
2018-11-29T04:35:58.596Z,82.90
2018-11-29T04:38:28.036Z,82.90
2018-11-29T04:41:04.508Z,82.90
2018-11-29T04:43:58.279Z,83.10
2018-11-29T04:46:52.073Z,83.20
2018-11-29T04:49:21.862Z,83.50
2018-11-29T04:51:51.290Z,83.60
2018-11-29T04:54:21.732Z,83.60
2018-11-29T04:56:51.240Z,83.60
2018-11-29T04:59:20.764Z,83.70
2018-11-29T05:01:58.912Z,83.70
2018-11-29T05:04:28.917Z,83.70
2018-11-29T05:06:58.335Z,83.60
2018-11-29T05:09:27.891Z,83.10
2018-11-29T05:11:57.801Z,82.40
2018-11-29T05:14:27.327Z,81.50
2018-11-29T05:16:57.437Z,80.90
2018-11-29T05:19:26.922Z,80.30
2018-11-29T05:21:56.283Z,79.80
2018-11-29T05:24:25.664Z,79.30
2018-11-29T05:26:55.141Z,79.00
2018-11-29T05:29:25.059Z,78.70
2018-11-29T05:32:02.503Z,79.10
2018-11-29T05:34:31.958Z,79.80
2018-11-29T05:37:01.788Z,80.60
2018-11-29T05:39:32.232Z,82.90
2018-11-29T05:42:01.905Z,86.20
2018-11-29T05:44:31.251Z,88.80
2018-11-29T05:47:00.729Z,90.80
2018-11-29T05:49:30.211Z,91.60
2018-11-29T05:55:00.760Z,92.00
2018-11-29T05:57:30.160Z,91.80
2018-11-29T06:00:09.849Z,91.60
2018-11-29T06:08:44.436Z,91.60
2018-11-29T06:13:53.730Z,91.40
2018-11-29T06:16:23.157Z,91.10
2018-11-29T06:18:59.738Z,91.00
2018-11-29T06:21:29.679Z,90.90
2018-11-29T06:23:59.068Z,90.90
2018-11-29T06:26:36.394Z,90.80
2018-11-29T06:29:05.919Z,90.70
2018-11-29T06:31:35.332Z,90.60
2018-11-29T06:34:09.343Z,90.40
2018-11-29T06:36:38.695Z,90.30
2018-11-29T06:39:09.221Z,90.20
2018-11-29T06:41:45.864Z,90.00
2018-11-29T06:44:15.219Z,89.70
2018-11-29T06:46:45.144Z,88.90
2018-11-29T06:49:14.661Z,88.20
2018-11-29T06:51:44.365Z,87.80
2018-11-29T06:54:13.624Z,87.40
2018-11-29T06:56:42.992Z,86.80
2018-11-29T06:59:12.476Z,86.50
2018-11-29T07:01:41.921Z,86.00
2018-11-29T07:04:11.531Z,85.70
2018-11-29T07:06:40.951Z,85.40
2018-11-29T07:09:10.866Z,85.00
2018-11-29T07:11:42.444Z,84.60
2018-11-29T07:14:11.885Z,84.20
2018-11-29T07:16:41.272Z,84.00
2018-11-29T07:19:20.657Z,83.60
2018-11-29T07:21:53.058Z,83.20
2018-11-29T07:24:23.311Z,82.90
2018-11-29T07:26:53.335Z,82.60
2018-11-29T07:29:23.296Z,82.30
2018-11-29T07:31:52.907Z,82.10
2018-11-29T07:40:36.574Z,81.50
2018-11-29T07:43:07.064Z,81.20
2018-11-29T07:45:46.923Z,81.00
2018-11-29T07:48:16.427Z,80.80
2018-11-29T07:56:38.780Z,80.00
2018-11-29T07:59:08.540Z,79.70
2018-11-29T08:01:48.426Z,79.30
2018-11-29T08:04:17.828Z,79.20
2018-11-29T08:06:47.251Z,78.90
2018-11-29T08:09:17.557Z,78.60
2018-11-29T08:11:47.560Z,78.50
2018-11-29T08:14:16.928Z,78.00
2018-11-29T08:16:51.806Z,77.80
2018-11-29T08:19:21.211Z,77.50
2018-11-29T08:21:50.641Z,77.10
2018-11-29T08:24:20.240Z,76.80
2018-11-29T08:26:49.640Z,76.70
2018-11-29T08:29:19.047Z,76.50
2018-11-29T08:31:48.991Z,76.20
2018-11-29T08:34:18.358Z,76.00
2018-11-29T08:36:47.779Z,75.90
2018-11-29T08:39:17.723Z,75.80
2018-11-29T08:41:47.628Z,75.60
2018-11-29T08:44:17.583Z,75.30
2018-11-29T08:46:47.091Z,75.20
2018-11-29T08:49:17.020Z,75.10
2018-11-29T08:51:53.500Z,75.00
2018-11-29T08:54:22.930Z,74.80
2018-11-29T08:56:58.363Z,74.60
2018-11-29T08:59:27.719Z,74.50
2018-11-29T09:01:57.088Z,74.30
2018-11-29T09:04:35.899Z,74.20
2018-11-29T09:07:05.015Z,74.20
2018-11-29T09:09:34.407Z,74.20
2018-11-29T09:14:42.726Z,74.10
2018-11-29T09:17:12.067Z,74.00
2018-11-29T09:19:43.995Z,73.90
2018-11-29T09:22:13.436Z,73.50
2018-11-29T09:24:43.017Z,73.00
2018-11-29T09:33:23.063Z,71.70
2018-11-29T09:35:52.482Z,71.20
2018-11-29T09:38:21.885Z,70.90
2018-11-29T09:40:59.872Z,70.70
2018-11-29T09:43:29.281Z,70.50
2018-11-29T09:45:58.737Z,70.40
2018-11-29T09:48:32.640Z,70.20
2018-11-29T09:51:02.039Z,70.10
2018-11-29T09:53:32.917Z,70.00
2018-11-29T09:56:01.155Z,69.80
2018-11-29T09:58:30.751Z,69.70
2018-11-29T10:01:00.215Z,69.60
2018-11-29T10:03:29.636Z,69.60
2018-11-29T10:05:59.574Z,69.60
2018-11-29T10:08:28.956Z,69.50
2018-11-29T10:10:58.329Z,69.50
2018-11-29T10:13:28.231Z,69.30
2018-11-29T10:15:57.592Z,69.30
2018-11-29T10:21:38.413Z,69.20
2018-11-29T10:24:08.397Z,69.20
2018-11-29T10:26:37.772Z,69.20
2018-11-29T10:29:07.181Z,69.10
2018-11-29T10:31:36.513Z,69.10
2018-11-29T10:34:05.731Z,69.10
2018-11-29T10:36:35.300Z,69.10
2018-11-29T10:39:06.619Z,69.00
2018-11-29T10:41:36.094Z,69.10
2018-11-29T10:44:05.566Z,69.00
2018-11-29T10:46:35.104Z,69.10
2018-11-29T10:49:04.614Z,69.10
2018-11-29T10:51:34.046Z,69.20
2018-11-29T10:54:03.836Z,69.20
2018-11-29T10:56:33.291Z,69.30
2018-11-29T10:59:02.785Z,69.30
2018-11-29T11:01:36.419Z,69.30
2018-11-29T11:04:06.792Z,69.40
2018-11-29T11:06:46.814Z,69.50
2018-11-29T11:09:17.091Z,69.50
2018-11-29T11:11:47.502Z,69.50
2018-11-29T11:14:16.884Z,69.60
2018-11-29T11:16:46.332Z,69.60
2018-11-29T11:19:15.787Z,69.60
2018-11-29T11:21:45.316Z,69.60
2018-11-29T11:24:14.701Z,69.60
2018-11-29T11:26:44.153Z,69.50
2018-11-29T11:29:13.532Z,69.50
2018-11-29T11:31:43.164Z,69.60
2018-11-29T11:34:13.134Z,69.60
2018-11-29T11:36:43.028Z,69.60
2018-11-29T11:39:12.210Z,69.50
2018-11-29T11:41:41.592Z,69.50
2018-11-29T11:44:10.973Z,69.40
2018-11-29T11:46:40.371Z,69.30
2018-11-29T11:49:09.835Z,69.20
2018-11-29T11:51:39.168Z,69.20
2018-11-29T11:54:08.669Z,69.20
2018-11-29T11:56:38.082Z,69.10
2018-11-29T12:02:18.187Z,69.00
2018-11-29T12:04:48.674Z,69.00
2018-11-29T12:07:16.989Z,69.00
2018-11-29T12:09:47.508Z,68.90
2018-11-29T12:12:17.147Z,69.20
2018-11-29T12:14:46.670Z,69.10
2018-11-29T12:17:17.166Z,69.30
2018-11-29T12:19:46.797Z,69.40
2018-11-29T12:22:16.288Z,69.50
2018-11-29T12:24:45.375Z,69.50
2018-11-29T12:27:14.721Z,69.60
2018-11-29T12:29:44.109Z,69.90
2018-11-29T12:32:24.026Z,69.90
2018-11-29T12:34:54.712Z,70.10
2018-11-29T12:37:26.296Z,70.60
2018-11-29T12:39:56.433Z,71.20
2018-11-29T12:45:09.121Z,72.30
2018-11-29T12:47:39.940Z,72.90
2018-11-29T12:50:15.204Z,73.20
2018-11-29T12:52:53.695Z,73.70
2018-11-29T12:55:24.933Z,74.00
2018-11-29T12:58:05.504Z,74.20
2018-11-29T13:00:30.847Z,74.50
2018-11-29T13:03:12.067Z,74.30
2018-11-29T13:09:01.744Z,73.90
2018-11-29T13:11:34.042Z,73.70
2018-11-29T13:14:03.941Z,73.50
2018-11-29T13:16:33.381Z,73.40
2018-11-29T13:21:43.681Z,73.10
2018-11-29T13:24:13.135Z,72.90
2018-11-29T13:26:42.741Z,72.80
2018-11-29T13:29:12.435Z,72.60
2018-11-29T13:31:41.866Z,72.50
2018-11-29T13:34:11.291Z,72.40
2018-11-29T13:36:50.131Z,72.30
2018-11-29T13:39:19.559Z,72.30
2018-11-29T13:41:49.083Z,72.10
2018-11-29T13:44:18.585Z,72.00
2018-11-29T13:46:48.094Z,72.00
2018-11-29T13:49:17.556Z,71.90
2018-11-29T13:51:47.137Z,71.70
2018-11-29T13:54:16.714Z,71.60
2018-11-29T13:56:46.171Z,71.50
2018-11-29T13:59:15.699Z,71.40
2018-11-29T14:04:46.707Z,71.20
2018-11-29T14:07:16.228Z,71.10
2018-11-29T14:10:00.428Z,71.00
2018-11-29T14:12:29.937Z,70.90
2018-11-29T14:15:00.093Z,70.80
2018-11-29T14:17:42.385Z,70.80
2018-11-29T14:20:12.766Z,70.70
2018-11-29T14:22:45.905Z,70.60
2018-11-29T14:25:16.241Z,70.60
2018-11-29T14:28:00.710Z,70.60
2018-11-29T14:30:31.001Z,70.50
2018-11-29T14:39:01.192Z,70.40
2018-11-29T14:41:31.324Z,70.20
2018-11-29T14:44:01.771Z,70.20
2018-11-29T14:46:31.224Z,70.20
2018-11-29T14:52:00.268Z,70.00
2018-11-29T14:54:30.349Z,70.00
2018-11-29T14:57:00.456Z,69.90
2018-11-29T14:59:30.236Z,70.00
2018-11-29T15:02:00.416Z,69.90
2018-11-29T15:04:30.416Z,69.80
2018-11-29T15:07:00.522Z,69.80
2018-11-29T15:09:30.187Z,69.70
2018-11-29T15:11:59.834Z,69.60
2018-11-29T15:14:30.026Z,69.60
2018-11-29T15:16:59.719Z,69.60
2018-11-29T15:19:29.154Z,69.50
2018-11-29T15:21:59.286Z,69.40
2018-11-29T15:24:28.969Z,69.40
2018-11-29T15:26:58.583Z,69.30
2018-11-29T15:29:32.110Z,69.30
2018-11-29T15:32:02.186Z,69.30
2018-11-29T15:34:35.455Z,69.20
2018-11-29T15:37:04.993Z,69.20
2018-11-29T15:39:34.580Z,69.20
2018-11-29T15:42:04.082Z,69.20
2018-11-29T15:44:33.548Z,69.20
2018-11-29T15:47:03.010Z,69.20
2018-11-29T15:49:32.569Z,69.10
2018-11-29T15:52:02.179Z,69.10
2018-11-29T15:54:32.281Z,69.00
2018-11-29T15:57:01.776Z,69.00
2018-11-29T15:59:31.299Z,69.00
2018-11-29T16:02:00.844Z,69.00
2018-11-29T16:07:05.525Z,68.90
2018-11-29T16:09:35.084Z,68.90
2018-11-29T16:14:39.219Z,68.90
2018-11-29T16:17:11.818Z,68.90
2018-11-29T16:19:41.251Z,68.90
2018-11-29T16:22:10.911Z,68.90
2018-11-29T16:24:40.552Z,68.70
2018-11-29T16:29:49.292Z,68.70
2018-11-29T16:32:18.859Z,68.70
2018-11-29T16:34:48.516Z,68.60
2018-11-29T16:37:18.704Z,68.80
2018-11-29T16:39:48.211Z,68.70
2018-11-29T16:42:17.725Z,68.70
2018-11-29T16:44:47.301Z,68.70
2018-11-29T16:47:16.983Z,68.70
2018-11-29T16:49:46.628Z,68.60
2018-11-29T16:52:16.807Z,68.60
2018-11-29T16:54:46.335Z,68.60
2018-11-29T16:57:16.042Z,68.60
2018-11-29T16:59:45.960Z,68.60
2018-11-29T17:04:50.607Z,68.70
2018-11-29T17:07:20.438Z,69.00
2018-11-29T17:09:51.151Z,69.20
2018-11-29T17:12:22.202Z,69.30
2018-11-29T17:14:52.528Z,69.30
2018-11-29T17:17:22.270Z,69.30
2018-11-29T17:19:51.997Z,69.30
2018-11-29T17:22:21.774Z,69.10
2018-11-29T17:24:51.504Z,69.10
2018-11-29T17:27:21.178Z,69.10
2018-11-29T17:29:51.415Z,69.10
2018-11-29T17:32:21.763Z,69.00
2018-11-29T17:34:51.402Z,68.90
2018-11-29T17:37:24.223Z,68.70
2018-11-29T17:39:53.994Z,68.80
2018-11-29T17:42:23.643Z,68.80
2018-11-29T17:44:53.373Z,68.80
2018-11-29T17:47:23.102Z,68.70
2018-11-29T17:49:53.358Z,68.70
2018-11-29T17:52:22.621Z,69.10
2018-11-29T17:54:52.492Z,70.40
2018-11-29T17:57:22.702Z,71.50
2018-11-29T17:59:53.484Z,72.50
2018-11-29T18:02:23.467Z,73.80
2018-11-29T18:04:53.252Z,74.80
2018-11-29T18:07:26.832Z,75.70
2018-11-29T18:09:56.474Z,76.90
2018-11-29T18:12:26.324Z,77.40
2018-11-29T18:14:56.155Z,77.70
2018-11-29T18:17:26.543Z,77.80
2018-11-29T18:19:56.287Z,78.00
2018-11-29T18:22:26.645Z,78.20
2018-11-29T18:24:56.289Z,78.10
2018-11-29T18:27:25.875Z,79.00
2018-11-29T18:35:15.947Z,85.40
2018-11-29T18:37:45.530Z,88.60
2018-11-29T18:40:16.870Z,90.20
2018-11-29T18:42:47.539Z,91.10
2018-11-29T18:45:17.866Z,91.40
2018-11-29T18:53:43.050Z,90.80
2018-11-29T18:56:12.581Z,90.40
2018-11-29T18:58:42.637Z,90.10
2018-11-29T19:01:12.174Z,90.00
2018-11-29T19:03:41.794Z,89.40
2018-11-29T19:06:11.306Z,88.90
2018-11-29T19:08:40.819Z,88.30
2018-11-29T19:11:10.432Z,87.90
2018-11-29T19:13:39.941Z,87.10
2018-11-29T19:16:09.616Z,86.30
2018-11-29T19:18:39.114Z,86.00
2018-11-29T19:21:08.699Z,85.90
2018-11-29T19:23:38.240Z,85.60
2018-11-29T19:26:07.816Z,85.40
2018-11-29T19:28:37.498Z,85.00
2018-11-29T19:31:07.139Z,83.70
2018-11-29T19:33:37.122Z,82.30
2018-11-29T20:03:24.603Z,77.80
2018-11-29T20:05:54.478Z,77.60
2018-11-29T20:08:24.130Z,77.50
2018-11-29T20:11:02.013Z,77.20
2018-11-29T20:16:15.663Z,76.90
2018-11-29T20:18:45.615Z,76.60
2018-11-29T20:21:23.567Z,76.30
2018-11-29T20:23:53.272Z,75.90
2018-11-29T20:26:22.886Z,75.50
2018-11-29T20:28:52.328Z,75.10
2018-11-29T20:31:21.892Z,74.80
2018-11-29T20:33:52.276Z,74.60
2018-11-29T20:36:22.249Z,74.40
2018-11-29T20:39:07.270Z,74.30
2018-11-29T20:41:39.212Z,74.10
2018-11-29T20:44:09.234Z,74.00
2018-11-29T20:46:39.652Z,73.90
2018-11-29T20:49:09.360Z,73.90
2018-11-29T20:51:39.554Z,74.20
2018-11-29T20:54:15.137Z,75.30
2018-11-29T20:56:44.891Z,75.10
2018-11-29T20:59:15.146Z,75.60
2018-11-29T21:01:46.673Z,75.80
2018-11-29T21:04:16.315Z,75.90
2018-11-29T21:06:46.160Z,76.00
2018-11-29T21:09:16.640Z,75.90
2018-11-29T21:11:47.910Z,75.70
2018-11-29T21:14:16.976Z,75.70
2018-11-29T21:16:51.640Z,75.60
2018-11-29T21:19:22.030Z,75.40
2018-11-29T21:21:51.791Z,75.30
2018-11-29T21:24:25.569Z,75.40
2018-11-29T21:26:55.821Z,75.50
2018-11-29T21:29:25.654Z,75.40
2018-11-29T21:31:58.112Z,75.20
2018-11-29T21:34:27.691Z,75.30
2018-11-29T21:36:57.593Z,75.00
2018-11-29T21:39:32.591Z,74.00
2018-11-29T21:42:02.235Z,73.20
2018-11-29T21:44:33.175Z,72.10
2018-11-29T21:47:07.115Z,72.20
2018-11-29T21:49:37.475Z,71.70
2018-11-29T21:52:07.573Z,71.20
2018-11-29T21:54:38.662Z,70.40
2018-11-29T21:57:08.476Z,70.40
2018-11-29T21:59:39.634Z,71.40
2018-11-29T22:02:11.313Z,72.30
2018-11-29T22:04:41.239Z,72.10
2018-11-29T22:07:11.078Z,72.50
2018-11-29T22:09:40.943Z,73.00
2018-11-29T22:12:10.754Z,73.70
2018-11-29T22:14:40.705Z,74.20
2018-11-29T22:17:10.560Z,74.70
2018-11-29T22:19:41.346Z,75.30
2018-11-29T22:22:11.324Z,75.70
2018-11-29T22:25:56.175Z,75.60
2018-11-29T22:28:31.498Z,75.70
2018-11-29T22:31:01.850Z,75.60
2018-11-29T22:33:31.493Z,75.20
2018-11-29T22:36:02.140Z,75.00
2018-11-29T22:38:31.596Z,74.80
2018-11-29T22:41:01.242Z,74.60
2018-11-29T22:43:31.047Z,74.60
2018-11-29T22:46:00.986Z,74.50
2018-11-29T22:48:30.629Z,74.50
2018-11-29T22:51:00.322Z,74.50
2018-11-29T22:53:29.788Z,74.30
2018-11-29T22:56:05.244Z,74.60
2018-11-29T22:58:37.494Z,74.80
2018-11-29T23:01:18.304Z,74.90
2018-11-29T23:03:47.832Z,75.20
2018-11-29T23:06:17.195Z,75.20
2018-11-29T23:08:51.931Z,75.30
2018-11-29T23:11:21.410Z,75.30
2018-11-29T23:13:50.888Z,75.20
2018-11-29T23:16:22.649Z,75.00
2018-11-29T23:18:52.753Z,74.50
2018-11-29T23:21:22.551Z,74.20
2018-11-29T23:23:57.731Z,73.90
2018-11-29T23:26:27.327Z,73.60
2018-11-29T23:28:56.896Z,73.40
2018-11-29T23:31:27.352Z,73.20
2018-11-29T23:33:56.828Z,73.00
2018-11-29T23:36:26.241Z,73.00
2018-11-29T23:39:02.232Z,72.90
2018-11-29T23:41:31.528Z,72.80
2018-11-29T23:44:01.076Z,72.70
2018-11-29T23:46:34.974Z,72.60
2018-11-29T23:49:04.445Z,72.50
2018-11-29T23:51:34.294Z,72.40
2018-11-29T23:54:04.655Z,72.20
2018-11-29T23:56:34.025Z,72.00
2018-11-29T23:59:05.158Z,71.80
